sensor_id;sensor_type;location;lat;lon;timestamp;temperature;humidity
19340;HTU21D;9804;52.350;6.684;2023-04-03T00:00:46;6.42;-6.00
19340;HTU21D;9804;52.350;6.684;2023-04-03T00:03:11;6.41;-6.00
19340;HTU21D;9804;52.350;6.684;2023-04-03T00:05:37;6.24;-6.00
19340;HTU21D;9804;52.350;6.684;2023-04-03T00:08:02;6.33;-6.00
19340;HTU21D;9804;52.350;6.684;2023-04-03T00:10:29;6.33;-6.00
19340;HTU21D;9804;52.350;6.684;2023-04-03T00:12:55;6.28;-6.00
19340;HTU21D;9804;52.350;6.684;2023-04-03T00:15:21;6.34;-6.00
19340;HTU21D;9804;52.350;6.684;2023-04-03T00:17:46;6.22;-6.00
19340;HTU21D;9804;52.350;6.684;2023-04-03T00:20:11;6.20;-6.00
19340;HTU21D;9804;52.350;6.684;2023-04-03T00:22:37;6.04;-6.00
19340;HTU21D;9804;52.350;6.684;2023-04-03T00:25:03;6.28;-6.00
19340;HTU21D;9804;52.350;6.684;2023-04-03T00:27:28;6.22;-6.00
19340;HTU21D;9804;52.350;6.684;2023-04-03T00:29:54;5.96;-6.00
19340;HTU21D;9804;52.350;6.684;2023-04-03T00:32:19;6.05;-6.00
19340;HTU21D;9804;52.350;6.684;2023-04-03T00:34:44;5.96;-6.00
19340;HTU21D;9804;52.350;6.684;2023-04-03T00:37:10;5.96;-6.00
19340;HTU21D;9804;52.350;6.684;2023-04-03T00:39:35;5.98;-6.00
19340;HTU21D;9804;52.350;6.684;2023-04-03T00:42:01;5.89;-6.00
19340;HTU21D;9804;52.350;6.684;2023-04-03T00:46:57;5.72;-6.00
19340;HTU21D;9804;52.350;6.684;2023-04-03T00:49:23;5.89;-6.00
19340;HTU21D;9804;52.350;6.684;2023-04-03T00:51:48;5.87;-6.00
19340;HTU21D;9804;52.350;6.684;2023-04-03T00:54:14;5.99;-6.00
19340;HTU21D;9804;52.350;6.684;2023-04-03T00:56:40;5.82;-6.00
19340;HTU21D;9804;52.350;6.684;2023-04-03T00:59:11;5.68;-6.00
19340;HTU21D;9804;52.350;6.684;2023-04-03T01:01:37;5.76;-6.00
19340;HTU21D;9804;52.350;6.684;2023-04-03T01:04:04;5.71;-6.00
19340;HTU21D;9804;52.350;6.684;2023-04-03T01:06:34;5.81;-6.00
19340;HTU21D;9804;52.350;6.684;2023-04-03T01:09:00;5.78;-6.00
19340;HTU21D;9804;52.350;6.684;2023-04-03T01:11:26;5.69;-6.00
19340;HTU21D;9804;52.350;6.684;2023-04-03T01:13:52;5.59;-6.00
19340;HTU21D;9804;52.350;6.684;2023-04-03T01:16:18;5.72;-6.00
19340;HTU21D;9804;52.350;6.684;2023-04-03T01:18:43;5.66;-6.00
19340;HTU21D;9804;52.350;6.684;2023-04-03T01:26:35;5.52;-6.00
19340;HTU21D;9804;52.350;6.684;2023-04-03T01:29:01;5.53;-6.00
19340;HTU21D;9804;52.350;6.684;2023-04-03T01:31:49;5.36;-6.00
19340;HTU21D;9804;52.350;6.684;2023-04-03T01:34:14;5.40;-6.00
19340;HTU21D;9804;52.350;6.684;2023-04-03T01:36:40;5.42;-6.00
19340;HTU21D;9804;52.350;6.684;2023-04-03T01:39:06;5.38;-6.00
19340;HTU21D;9804;52.350;6.684;2023-04-03T01:41:32;5.36;-6.00
19340;HTU21D;9804;52.350;6.684;2023-04-03T01:43:57;5.33;-6.00
19340;HTU21D;9804;52.350;6.684;2023-04-03T01:46:23;5.52;-6.00
19340;HTU21D;9804;52.350;6.684;2023-04-03T01:48:49;5.41;-6.00
19340;HTU21D;9804;52.350;6.684;2023-04-03T01:51:14;5.34;-6.00
19340;HTU21D;9804;52.350;6.684;2023-04-03T01:53:40;5.37;-6.00
19340;HTU21D;9804;52.350;6.684;2023-04-03T01:56:05;5.26;-6.00
19340;HTU21D;9804;52.350;6.684;2023-04-03T01:58:31;5.33;-6.00
19340;HTU21D;9804;52.350;6.684;2023-04-03T02:00:56;5.10;-6.00
19340;HTU21D;9804;52.350;6.684;2023-04-03T02:03:22;5.23;-6.00
19340;HTU21D;9804;52.350;6.684;2023-04-03T02:05:47;5.17;-6.00
19340;HTU21D;9804;52.350;6.684;2023-04-03T02:08:13;5.05;-6.00
19340;HTU21D;9804;52.350;6.684;2023-04-03T02:10:39;5.06;-6.00
19340;HTU21D;9804;52.350;6.684;2023-04-03T02:13:04;5.07;-6.00
19340;HTU21D;9804;52.350;6.684;2023-04-03T02:15:30;5.12;-6.00
19340;HTU21D;9804;52.350;6.684;2023-04-03T02:17:55;5.05;-6.00
19340;HTU21D;9804;52.350;6.684;2023-04-03T02:20:21;4.90;-6.00
19340;HTU21D;9804;52.350;6.684;2023-04-03T02:22:46;4.94;-6.00
19340;HTU21D;9804;52.350;6.684;2023-04-03T02:25:12;4.90;-6.00
19340;HTU21D;9804;52.350;6.684;2023-04-03T02:27:38;4.92;-6.00
19340;HTU21D;9804;52.350;6.684;2023-04-03T02:30:04;4.86;-6.00
19340;HTU21D;9804;52.350;6.684;2023-04-03T02:32:30;4.72;-6.00
19340;HTU21D;9804;52.350;6.684;2023-04-03T02:34:55;4.72;-6.00
19340;HTU21D;9804;52.350;6.684;2023-04-03T02:37:21;4.79;-6.00
19340;HTU21D;9804;52.350;6.684;2023-04-03T02:39:46;4.76;-6.00
19340;HTU21D;9804;52.350;6.684;2023-04-03T02:42:12;4.81;-6.00
19340;HTU21D;9804;52.350;6.684;2023-04-03T02:44:37;4.79;-6.00
19340;HTU21D;9804;52.350;6.684;2023-04-03T02:47:04;4.77;-6.00
19340;HTU21D;9804;52.350;6.684;2023-04-03T02:49:29;4.79;-6.00
19340;HTU21D;9804;52.350;6.684;2023-04-03T02:51:55;4.59;-6.00
19340;HTU21D;9804;52.350;6.684;2023-04-03T02:54:20;4.47;-6.00
19340;HTU21D;9804;52.350;6.684;2023-04-03T02:56:47;4.58;-6.00
19340;HTU21D;9804;52.350;6.684;2023-04-03T02:59:12;4.48;-6.00
19340;HTU21D;9804;52.350;6.684;2023-04-03T03:01:37;4.59;-6.00
19340;HTU21D;9804;52.350;6.684;2023-04-03T03:04:03;4.51;-6.00
19340;HTU21D;9804;52.350;6.684;2023-04-03T03:06:28;4.52;-6.00
19340;HTU21D;9804;52.350;6.684;2023-04-03T03:08:54;4.44;-6.00
19340;HTU21D;9804;52.350;6.684;2023-04-03T03:11:19;4.38;-6.00
19340;HTU21D;9804;52.350;6.684;2023-04-03T03:13:46;4.48;-6.00
19340;HTU21D;9804;52.350;6.684;2023-04-03T03:16:11;4.39;-6.00
19340;HTU21D;9804;52.350;6.684;2023-04-03T03:18:36;4.33;-6.00
19340;HTU21D;9804;52.350;6.684;2023-04-03T03:21:03;4.30;-6.00
19340;HTU21D;9804;52.350;6.684;2023-04-03T03:23:30;4.30;-6.00
19340;HTU21D;9804;52.350;6.684;2023-04-03T03:26:05;4.36;-6.00
19340;HTU21D;9804;52.350;6.684;2023-04-03T03:28:32;4.27;-6.00
19340;HTU21D;9804;52.350;6.684;2023-04-03T03:30:57;4.16;-6.00
19340;HTU21D;9804;52.350;6.684;2023-04-03T03:33:23;4.00;-6.00
19340;HTU21D;9804;52.350;6.684;2023-04-03T03:35:49;4.05;-6.00
19340;HTU21D;9804;52.350;6.684;2023-04-03T03:38:15;4.21;-6.00
19340;HTU21D;9804;52.350;6.684;2023-04-03T03:40:40;4.12;-6.00
19340;HTU21D;9804;52.350;6.684;2023-04-03T03:43:05;4.12;-6.00
19340;HTU21D;9804;52.350;6.684;2023-04-03T03:45:31;4.02;-6.00
19340;HTU21D;9804;52.350;6.684;2023-04-03T03:47:57;4.13;-6.00
19340;HTU21D;9804;52.350;6.684;2023-04-03T03:50:22;4.03;-6.00
19340;HTU21D;9804;52.350;6.684;2023-04-03T03:52:47;3.98;-6.00
19340;HTU21D;9804;52.350;6.684;2023-04-03T03:55:13;3.99;-6.00
19340;HTU21D;9804;52.350;6.684;2023-04-03T03:57:38;4.04;-6.00
19340;HTU21D;9804;52.350;6.684;2023-04-03T04:00:04;4.01;-6.00
19340;HTU21D;9804;52.350;6.684;2023-04-03T04:02:30;3.87;-6.00
19340;HTU21D;9804;52.350;6.684;2023-04-03T04:04:55;3.82;-6.00
19340;HTU21D;9804;52.350;6.684;2023-04-03T04:07:21;3.63;-6.00
19340;HTU21D;9804;52.350;6.684;2023-04-03T04:09:46;3.67;-6.00
19340;HTU21D;9804;52.350;6.684;2023-04-03T04:12:11;3.72;-6.00
19340;HTU21D;9804;52.350;6.684;2023-04-03T04:14:37;3.78;-6.00
19340;HTU21D;9804;52.350;6.684;2023-04-03T04:17:02;3.82;-6.00
19340;HTU21D;9804;52.350;6.684;2023-04-03T04:19:28;3.80;-6.00
19340;HTU21D;9804;52.350;6.684;2023-04-03T04:21:54;3.52;-6.00
19340;HTU21D;9804;52.350;6.684;2023-04-03T04:24:19;3.76;-6.00
19340;HTU21D;9804;52.350;6.684;2023-04-03T04:26:44;3.70;-6.00
19340;HTU21D;9804;52.350;6.684;2023-04-03T04:29:10;3.52;-6.00
19340;HTU21D;9804;52.350;6.684;2023-04-03T04:31:35;3.67;-6.00
19340;HTU21D;9804;52.350;6.684;2023-04-03T04:34:01;3.44;-6.00
19340;HTU21D;9804;52.350;6.684;2023-04-03T04:36:26;3.56;-6.00
19340;HTU21D;9804;52.350;6.684;2023-04-03T04:38:52;3.65;-6.00
19340;HTU21D;9804;52.350;6.684;2023-04-03T04:41:21;3.65;-6.00
19340;HTU21D;9804;52.350;6.684;2023-04-03T04:43:48;3.56;-6.00
19340;HTU21D;9804;52.350;6.684;2023-04-03T04:46:13;3.36;-6.00
19340;HTU21D;9804;52.350;6.684;2023-04-03T04:48:39;3.43;-6.00
19340;HTU21D;9804;52.350;6.684;2023-04-03T04:51:06;3.26;-6.00
19340;HTU21D;9804;52.350;6.684;2023-04-03T04:53:31;3.33;-6.00
19340;HTU21D;9804;52.350;6.684;2023-04-03T04:55:57;3.35;-6.00
19340;HTU21D;9804;52.350;6.684;2023-04-03T04:58:22;3.45;-6.00
19340;HTU21D;9804;52.350;6.684;2023-04-03T05:00:48;3.32;-6.00
19340;HTU21D;9804;52.350;6.684;2023-04-03T05:03:13;3.35;-6.00
19340;HTU21D;9804;52.350;6.684;2023-04-03T05:05:39;3.39;-6.00
19340;HTU21D;9804;52.350;6.684;2023-04-03T05:08:06;3.21;-6.00
19340;HTU21D;9804;52.350;6.684;2023-04-03T05:10:33;3.24;-6.00
19340;HTU21D;9804;52.350;6.684;2023-04-03T05:12:58;3.27;-6.00
19340;HTU21D;9804;52.350;6.684;2023-04-03T05:15:24;3.19;-6.00
19340;HTU21D;9804;52.350;6.684;2023-04-03T05:17:49;3.14;-6.00
19340;HTU21D;9804;52.350;6.684;2023-04-03T05:20:16;3.33;-6.00
19340;HTU21D;9804;52.350;6.684;2023-04-03T05:22:41;3.20;-6.00
19340;HTU21D;9804;52.350;6.684;2023-04-03T05:25:07;3.30;-6.00
19340;HTU21D;9804;52.350;6.684;2023-04-03T05:27:32;3.36;-6.00
19340;HTU21D;9804;52.350;6.684;2023-04-03T05:29:58;3.44;-6.00
19340;HTU21D;9804;52.350;6.684;2023-04-03T05:32:25;3.39;-6.00
19340;HTU21D;9804;52.350;6.684;2023-04-03T05:34:52;3.47;-6.00
19340;HTU21D;9804;52.350;6.684;2023-04-03T05:37:18;3.27;-6.00
19340;HTU21D;9804;52.350;6.684;2023-04-03T05:39:43;3.09;-6.00
19340;HTU21D;9804;52.350;6.684;2023-04-03T05:42:09;3.23;-6.00
19340;HTU21D;9804;52.350;6.684;2023-04-03T05:44:36;3.35;-6.00
19340;HTU21D;9804;52.350;6.684;2023-04-03T05:47:02;3.32;-6.00
19340;HTU21D;9804;52.350;6.684;2023-04-03T05:49:27;3.31;-6.00
19340;HTU21D;9804;52.350;6.684;2023-04-03T05:51:53;3.33;-6.00
19340;HTU21D;9804;52.350;6.684;2023-04-03T05:54:21;3.38;-6.00
19340;HTU21D;9804;52.350;6.684;2023-04-03T05:56:49;3.49;-6.00
19340;HTU21D;9804;52.350;6.684;2023-04-03T05:59:15;3.60;-6.00
19340;HTU21D;9804;52.350;6.684;2023-04-03T06:01:40;3.64;-6.00
19340;HTU21D;9804;52.350;6.684;2023-04-03T06:04:05;3.58;-6.00
19340;HTU21D;9804;52.350;6.684;2023-04-03T06:09:09;3.54;-6.00
19340;HTU21D;9804;52.350;6.684;2023-04-03T06:11:34;3.63;-6.00
19340;HTU21D;9804;52.350;6.684;2023-04-03T06:14:00;3.67;-6.00
19340;HTU21D;9804;52.350;6.684;2023-04-03T06:16:26;3.73;-6.00
19340;HTU21D;9804;52.350;6.684;2023-04-03T06:18:51;3.72;-6.00
19340;HTU21D;9804;52.350;6.684;2023-04-03T06:21:17;3.75;-6.00
19340;HTU21D;9804;52.350;6.684;2023-04-03T06:23:42;3.71;-6.00
19340;HTU21D;9804;52.350;6.684;2023-04-03T06:26:08;3.80;-6.00
19340;HTU21D;9804;52.350;6.684;2023-04-03T06:28:33;3.90;-6.00
19340;HTU21D;9804;52.350;6.684;2023-04-03T06:30:58;3.83;-6.00
19340;HTU21D;9804;52.350;6.684;2023-04-03T06:33:24;3.91;-6.00
19340;HTU21D;9804;52.350;6.684;2023-04-03T06:35:49;4.04;-6.00
19340;HTU21D;9804;52.350;6.684;2023-04-03T06:38:14;3.74;-6.00
19340;HTU21D;9804;52.350;6.684;2023-04-03T06:40:40;3.95;-6.00
19340;HTU21D;9804;52.350;6.684;2023-04-03T06:43:05;3.97;-6.00
19340;HTU21D;9804;52.350;6.684;2023-04-03T06:45:31;4.27;-6.00
19340;HTU21D;9804;52.350;6.684;2023-04-03T06:47:56;4.33;-6.00
19340;HTU21D;9804;52.350;6.684;2023-04-03T06:50:21;4.37;-6.00
19340;HTU21D;9804;52.350;6.684;2023-04-03T06:52:47;4.50;-6.00
19340;HTU21D;9804;52.350;6.684;2023-04-03T06:55:12;4.36;-6.00
19340;HTU21D;9804;52.350;6.684;2023-04-03T06:57:38;4.41;-6.00
19340;HTU21D;9804;52.350;6.684;2023-04-03T07:00:05;4.62;-6.00
19340;HTU21D;9804;52.350;6.684;2023-04-03T07:02:31;4.39;-6.00
19340;HTU21D;9804;52.350;6.684;2023-04-03T07:04:56;4.48;-6.00
19340;HTU21D;9804;52.350;6.684;2023-04-03T07:07:22;4.59;-6.00
19340;HTU21D;9804;52.350;6.684;2023-04-03T07:09:47;4.77;-6.00
19340;HTU21D;9804;52.350;6.684;2023-04-03T07:12:13;4.51;-6.00
19340;HTU21D;9804;52.350;6.684;2023-04-03T07:14:39;4.91;-6.00
19340;HTU21D;9804;52.350;6.684;2023-04-03T07:17:04;5.04;-6.00
19340;HTU21D;9804;52.350;6.684;2023-04-03T07:19:30;5.22;-6.00
19340;HTU21D;9804;52.350;6.684;2023-04-03T07:21:56;4.92;-6.00
19340;HTU21D;9804;52.350;6.684;2023-04-03T07:24:21;4.94;-6.00
19340;HTU21D;9804;52.350;6.684;2023-04-03T07:26:51;5.20;-6.00
19340;HTU21D;9804;52.350;6.684;2023-04-03T07:29:17;5.18;-6.00
19340;HTU21D;9804;52.350;6.684;2023-04-03T07:31:42;5.48;-6.00
19340;HTU21D;9804;52.350;6.684;2023-04-03T07:34:10;5.53;-6.00
19340;HTU21D;9804;52.350;6.684;2023-04-03T07:36:35;5.42;-6.00
19340;HTU21D;9804;52.350;6.684;2023-04-03T07:39:01;5.63;-6.00
19340;HTU21D;9804;52.350;6.684;2023-04-03T07:41:27;5.64;-6.00
19340;HTU21D;9804;52.350;6.684;2023-04-03T07:43:53;5.65;-6.00
19340;HTU21D;9804;52.350;6.684;2023-04-03T07:46:20;5.87;-6.00
19340;HTU21D;9804;52.350;6.684;2023-04-03T07:48:45;5.81;-6.00
19340;HTU21D;9804;52.350;6.684;2023-04-03T07:51:11;6.08;-6.00
19340;HTU21D;9804;52.350;6.684;2023-04-03T07:53:38;5.81;-6.00
19340;HTU21D;9804;52.350;6.684;2023-04-03T07:56:03;6.04;-6.00
19340;HTU21D;9804;52.350;6.684;2023-04-03T07:58:29;6.16;-6.00
19340;HTU21D;9804;52.350;6.684;2023-04-03T08:00:55;6.23;-6.00
19340;HTU21D;9804;52.350;6.684;2023-04-03T08:03:20;6.36;-6.00
19340;HTU21D;9804;52.350;6.684;2023-04-03T08:05:47;6.48;-6.00
19340;HTU21D;9804;52.350;6.684;2023-04-03T08:08:15;6.54;-6.00
19340;HTU21D;9804;52.350;6.684;2023-04-03T08:10:41;6.48;-6.00
19340;HTU21D;9804;52.350;6.684;2023-04-03T08:13:08;6.58;-6.00
19340;HTU21D;9804;52.350;6.684;2023-04-03T08:15:33;6.88;-6.00
19340;HTU21D;9804;52.350;6.684;2023-04-03T08:17:59;7.00;-6.00
19340;HTU21D;9804;52.350;6.684;2023-04-03T08:20:26;6.95;-6.00
19340;HTU21D;9804;52.350;6.684;2023-04-03T08:22:52;7.11;-6.00
19340;HTU21D;9804;52.350;6.684;2023-04-03T08:25:17;6.80;-6.00
19340;HTU21D;9804;52.350;6.684;2023-04-03T08:27:43;7.00;-6.00
19340;HTU21D;9804;52.350;6.684;2023-04-03T08:30:10;7.26;-6.00
19340;HTU21D;9804;52.350;6.684;2023-04-03T08:32:35;7.17;-6.00
19340;HTU21D;9804;52.350;6.684;2023-04-03T08:35:04;7.47;-6.00
19340;HTU21D;9804;52.350;6.684;2023-04-03T08:37:29;7.30;-6.00
19340;HTU21D;9804;52.350;6.684;2023-04-03T08:39:55;7.44;-6.00
19340;HTU21D;9804;52.350;6.684;2023-04-03T08:45:43;7.89;-6.00
19340;HTU21D;9804;52.350;6.684;2023-04-03T08:48:23;7.88;-6.00
19340;HTU21D;9804;52.350;6.684;2023-04-03T08:50:53;7.85;-6.00
19340;HTU21D;9804;52.350;6.684;2023-04-03T08:53:21;7.87;-6.00
19340;HTU21D;9804;52.350;6.684;2023-04-03T08:55:49;8.01;-6.00
19340;HTU21D;9804;52.350;6.684;2023-04-03T08:58:23;8.02;-6.00
19340;HTU21D;9804;52.350;6.684;2023-04-03T09:01:16;8.17;-6.00
19340;HTU21D;9804;52.350;6.684;2023-04-03T09:03:42;7.99;-6.00
19340;HTU21D;9804;52.350;6.684;2023-04-03T09:06:13;8.32;-6.00
19340;HTU21D;9804;52.350;6.684;2023-04-03T09:08:49;8.43;-6.00
19340;HTU21D;9804;52.350;6.684;2023-04-03T09:14:33;8.50;-6.00
19340;HTU21D;9804;52.350;6.684;2023-04-03T09:17:08;8.75;-6.00
19340;HTU21D;9804;52.350;6.684;2023-04-03T09:19:41;8.75;-6.00
19340;HTU21D;9804;52.350;6.684;2023-04-03T09:22:13;9.11;-6.00
19340;HTU21D;9804;52.350;6.684;2023-04-03T09:24:41;9.24;-6.00
19340;HTU21D;9804;52.350;6.684;2023-04-03T09:27:10;9.02;-6.00
19340;HTU21D;9804;52.350;6.684;2023-04-03T09:29:40;9.15;-6.00
19340;HTU21D;9804;52.350;6.684;2023-04-03T09:32:30;9.62;-6.00
19340;HTU21D;9804;52.350;6.684;2023-04-03T09:35:04;9.56;-6.00
19340;HTU21D;9804;52.350;6.684;2023-04-03T09:37:44;9.82;-6.00
19340;HTU21D;9804;52.350;6.684;2023-04-03T09:42:57;9.61;-6.00
19340;HTU21D;9804;52.350;6.684;2023-04-03T09:45:32;9.84;-6.00
19340;HTU21D;9804;52.350;6.684;2023-04-03T09:48:12;10.00;-6.00
19340;HTU21D;9804;52.350;6.684;2023-04-03T09:55:59;9.59;-6.00
19340;HTU21D;9804;52.350;6.684;2023-04-03T09:58:37;9.68;-6.00
19340;HTU21D;9804;52.350;6.684;2023-04-03T10:01:03;9.70;-6.00
19340;HTU21D;9804;52.350;6.684;2023-04-03T10:03:32;10.15;-6.00
19340;HTU21D;9804;52.350;6.684;2023-04-03T10:05:58;9.80;-6.00
19340;HTU21D;9804;52.350;6.684;2023-04-03T10:08:30;10.00;-6.00
19340;HTU21D;9804;52.350;6.684;2023-04-03T10:11:16;10.20;-6.00
19340;HTU21D;9804;52.350;6.684;2023-04-03T10:14:00;10.20;-6.00
19340;HTU21D;9804;52.350;6.684;2023-04-03T10:30:22;10.26;-6.00
19340;HTU21D;9804;52.350;6.684;2023-04-03T10:36:44;10.52;-6.00
19340;HTU21D;9804;52.350;6.684;2023-04-03T10:39:30;10.73;-6.00
19340;HTU21D;9804;52.350;6.684;2023-04-03T10:47:27;10.81;-6.00
19340;HTU21D;9804;52.350;6.684;2023-04-03T10:50:06;10.70;-6.00
19340;HTU21D;9804;52.350;6.684;2023-04-03T10:52:46;11.02;-6.00
19340;HTU21D;9804;52.350;6.684;2023-04-03T10:57:39;10.85;-6.00
19340;HTU21D;9804;52.350;6.684;2023-04-03T11:00:22;10.69;-6.00
19340;HTU21D;9804;52.350;6.684;2023-04-03T11:02:55;10.90;-6.00
19340;HTU21D;9804;52.350;6.684;2023-04-03T11:05:30;10.89;-6.00
19340;HTU21D;9804;52.350;6.684;2023-04-03T11:08:03;10.69;-6.00
19340;HTU21D;9804;52.350;6.684;2023-04-03T11:10:40;10.65;-6.00
19340;HTU21D;9804;52.350;6.684;2023-04-03T11:13:11;11.23;-6.00
19340;HTU21D;9804;52.350;6.684;2023-04-03T11:15:38;11.34;-6.00
19340;HTU21D;9804;52.350;6.684;2023-04-03T11:18:12;10.98;-6.00
19340;HTU21D;9804;52.350;6.684;2023-04-03T11:20:43;11.07;-6.00
19340;HTU21D;9804;52.350;6.684;2023-04-03T11:23:29;10.82;-6.00
19340;HTU21D;9804;52.350;6.684;2023-04-03T11:26:13;10.89;-6.00
19340;HTU21D;9804;52.350;6.684;2023-04-03T11:28:40;11.01;-6.00
19340;HTU21D;9804;52.350;6.684;2023-04-03T11:31:29;10.74;-6.00
19340;HTU21D;9804;52.350;6.684;2023-04-03T11:37:31;11.03;-6.00
19340;HTU21D;9804;52.350;6.684;2023-04-03T11:42:37;11.78;-6.00
19340;HTU21D;9804;52.350;6.684;2023-04-03T11:45:32;11.67;-6.00
19340;HTU21D;9804;52.350;6.684;2023-04-03T11:48:01;11.13;-6.00
19340;HTU21D;9804;52.350;6.684;2023-04-03T11:50:40;11.61;-6.00
19340;HTU21D;9804;52.350;6.684;2023-04-03T12:16:22;11.54;-6.00
19340;HTU21D;9804;52.350;6.684;2023-04-03T12:26:47;11.30;-6.00
19340;HTU21D;9804;52.350;6.684;2023-04-03T12:40:26;11.58;-6.00
19340;HTU21D;9804;52.350;6.684;2023-04-03T12:48:22;11.42;-6.00
19340;HTU21D;9804;52.350;6.684;2023-04-03T12:50:50;11.42;-6.00
19340;HTU21D;9804;52.350;6.684;2023-04-03T12:53:19;11.27;-6.00
19340;HTU21D;9804;52.350;6.684;2023-04-03T12:55:46;11.32;-6.00
19340;HTU21D;9804;52.350;6.684;2023-04-03T12:58:27;11.75;-6.00
19340;HTU21D;9804;52.350;6.684;2023-04-03T13:01:04;11.43;-6.00
19340;HTU21D;9804;52.350;6.684;2023-04-03T13:03:35;11.55;-6.00
19340;HTU21D;9804;52.350;6.684;2023-04-03T13:06:03;11.49;-6.00
19340;HTU21D;9804;52.350;6.684;2023-04-03T13:08:29;12.03;-6.00
19340;HTU21D;9804;52.350;6.684;2023-04-03T13:11:22;12.22;-6.00
19340;HTU21D;9804;52.350;6.684;2023-04-03T13:13:56;11.94;-6.00
19340;HTU21D;9804;52.350;6.684;2023-04-03T13:16:21;11.70;-6.00
19340;HTU21D;9804;52.350;6.684;2023-04-03T13:18:51;12.05;-6.00
19340;HTU21D;9804;52.350;6.684;2023-04-03T13:21:19;11.97;-6.00
19340;HTU21D;9804;52.350;6.684;2023-04-03T13:23:49;12.28;-6.00
19340;HTU21D;9804;52.350;6.684;2023-04-03T13:26:17;12.53;-6.00
19340;HTU21D;9804;52.350;6.684;2023-04-03T13:28:43;12.38;-6.00
19340;HTU21D;9804;52.350;6.684;2023-04-03T13:33:59;12.78;-6.00
19340;HTU21D;9804;52.350;6.684;2023-04-03T13:36:34;12.66;-6.00
19340;HTU21D;9804;52.350;6.684;2023-04-03T13:39:06;12.67;-6.00
19340;HTU21D;9804;52.350;6.684;2023-04-03T13:41:49;12.06;-6.00
19340;HTU21D;9804;52.350;6.684;2023-04-03T13:47:21;11.91;-6.00
19340;HTU21D;9804;52.350;6.684;2023-04-03T13:50:12;11.92;-6.00
19340;HTU21D;9804;52.350;6.684;2023-04-03T13:53:03;12.13;-6.00
19340;HTU21D;9804;52.350;6.684;2023-04-03T13:55:34;12.25;-6.00
19340;HTU21D;9804;52.350;6.684;2023-04-03T13:58:18;12.19;-6.00
19340;HTU21D;9804;52.350;6.684;2023-04-03T14:01:01;12.00;-6.00
19340;HTU21D;9804;52.350;6.684;2023-04-03T14:03:44;12.15;-6.00
19340;HTU21D;9804;52.350;6.684;2023-04-03T14:06:13;11.68;-6.00
19340;HTU21D;9804;52.350;6.684;2023-04-03T14:08:39;11.78;-6.00
19340;HTU21D;9804;52.350;6.684;2023-04-03T14:11:05;12.04;-6.00
19340;HTU21D;9804;52.350;6.684;2023-04-03T14:13:31;12.33;-6.00
19340;HTU21D;9804;52.350;6.684;2023-04-03T14:15:56;12.35;-6.00
19340;HTU21D;9804;52.350;6.684;2023-04-03T14:18:22;12.06;-6.00
19340;HTU21D;9804;52.350;6.684;2023-04-03T14:20:48;11.97;-6.00
19340;HTU21D;9804;52.350;6.684;2023-04-03T14:23:14;12.02;-6.00
19340;HTU21D;9804;52.350;6.684;2023-04-03T14:25:40;11.97;-6.00
19340;HTU21D;9804;52.350;6.684;2023-04-03T14:28:18;12.05;-6.00
19340;HTU21D;9804;52.350;6.684;2023-04-03T14:30:45;12.11;-6.00
19340;HTU21D;9804;52.350;6.684;2023-04-03T14:33:14;11.67;-6.00
19340;HTU21D;9804;52.350;6.684;2023-04-03T14:35:40;11.79;-6.00
19340;HTU21D;9804;52.350;6.684;2023-04-03T14:38:27;11.94;-6.00
19340;HTU21D;9804;52.350;6.684;2023-04-03T14:40:54;12.13;-6.00
19340;HTU21D;9804;52.350;6.684;2023-04-03T14:43:20;12.14;-6.00
19340;HTU21D;9804;52.350;6.684;2023-04-03T14:45:46;12.14;-6.00
19340;HTU21D;9804;52.350;6.684;2023-04-03T14:48:25;12.03;-6.00
19340;HTU21D;9804;52.350;6.684;2023-04-03T14:50:52;12.45;-6.00
19340;HTU21D;9804;52.350;6.684;2023-04-03T14:53:19;12.33;-6.00
19340;HTU21D;9804;52.350;6.684;2023-04-03T14:55:48;12.42;-6.00
19340;HTU21D;9804;52.350;6.684;2023-04-03T14:58:18;12.77;-6.00
19340;HTU21D;9804;52.350;6.684;2023-04-03T15:00:45;12.04;-6.00
19340;HTU21D;9804;52.350;6.684;2023-04-03T15:03:14;12.20;-6.00
19340;HTU21D;9804;52.350;6.684;2023-04-03T15:05:41;12.27;-6.00
19340;HTU21D;9804;52.350;6.684;2023-04-03T15:08:22;12.59;-6.00
19340;HTU21D;9804;52.350;6.684;2023-04-03T15:10:49;12.69;-6.00
19340;HTU21D;9804;52.350;6.684;2023-04-03T15:13:15;12.91;-6.00
19340;HTU21D;9804;52.350;6.684;2023-04-03T15:15:41;12.73;-6.00
19340;HTU21D;9804;52.350;6.684;2023-04-03T15:18:07;12.65;-6.00
19340;HTU21D;9804;52.350;6.684;2023-04-03T15:20:35;12.59;-6.00
19340;HTU21D;9804;52.350;6.684;2023-04-03T15:23:01;12.80;-6.00
19340;HTU21D;9804;52.350;6.684;2023-04-03T15:25:27;12.31;-6.00
19340;HTU21D;9804;52.350;6.684;2023-04-03T15:27:54;11.87;-6.00
19340;HTU21D;9804;52.350;6.684;2023-04-03T15:30:19;12.30;-6.00
19340;HTU21D;9804;52.350;6.684;2023-04-03T15:32:45;12.46;-6.00
19340;HTU21D;9804;52.350;6.684;2023-04-03T15:35:11;12.31;-6.00
19340;HTU21D;9804;52.350;6.684;2023-04-03T15:37:37;13.02;-6.00
19340;HTU21D;9804;52.350;6.684;2023-04-03T15:40:04;13.35;-6.00
19340;HTU21D;9804;52.350;6.684;2023-04-03T15:42:30;12.47;-6.00
19340;HTU21D;9804;52.350;6.684;2023-04-03T15:44:55;13.19;-6.00
19340;HTU21D;9804;52.350;6.684;2023-04-03T15:47:20;12.87;-6.00
19340;HTU21D;9804;52.350;6.684;2023-04-03T15:49:46;13.59;-6.00
19340;HTU21D;9804;52.350;6.684;2023-04-03T15:52:11;13.19;-6.00
19340;HTU21D;9804;52.350;6.684;2023-04-03T15:54:37;12.34;-6.00
19340;HTU21D;9804;52.350;6.684;2023-04-03T15:57:02;12.38;-6.00
19340;HTU21D;9804;52.350;6.684;2023-04-03T15:59:28;12.70;-6.00
19340;HTU21D;9804;52.350;6.684;2023-04-03T16:01:55;12.53;-6.00
19340;HTU21D;9804;52.350;6.684;2023-04-03T16:04:21;12.80;-6.00
19340;HTU21D;9804;52.350;6.684;2023-04-03T16:06:48;12.70;-6.00
19340;HTU21D;9804;52.350;6.684;2023-04-03T16:09:13;13.14;-6.00
19340;HTU21D;9804;52.350;6.684;2023-04-03T16:11:39;13.62;-6.00
19340;HTU21D;9804;52.350;6.684;2023-04-03T16:14:08;13.44;-6.00
19340;HTU21D;9804;52.350;6.684;2023-04-03T16:16:34;13.22;-6.00
19340;HTU21D;9804;52.350;6.684;2023-04-03T16:19:00;12.76;-6.00
19340;HTU21D;9804;52.350;6.684;2023-04-03T16:21:26;13.50;-6.00
19340;HTU21D;9804;52.350;6.684;2023-04-03T16:23:52;13.06;-6.00
19340;HTU21D;9804;52.350;6.684;2023-04-03T16:26:17;13.97;-6.00
19340;HTU21D;9804;52.350;6.684;2023-04-03T16:28:43;13.79;-6.00
19340;HTU21D;9804;52.350;6.684;2023-04-03T16:31:09;13.75;-6.00
19340;HTU21D;9804;52.350;6.684;2023-04-03T16:33:34;13.98;-6.00
19340;HTU21D;9804;52.350;6.684;2023-04-03T16:36:00;13.74;-6.00
19340;HTU21D;9804;52.350;6.684;2023-04-03T16:38:26;13.43;-6.00
19340;HTU21D;9804;52.350;6.684;2023-04-03T16:40:51;13.70;-6.00
19340;HTU21D;9804;52.350;6.684;2023-04-03T16:43:21;13.90;-6.00
19340;HTU21D;9804;52.350;6.684;2023-04-03T16:45:46;13.82;-6.00
19340;HTU21D;9804;52.350;6.684;2023-04-03T16:48:12;13.60;-6.00
19340;HTU21D;9804;52.350;6.684;2023-04-03T16:50:39;13.56;-6.00
19340;HTU21D;9804;52.350;6.684;2023-04-03T16:53:04;13.52;-6.00
19340;HTU21D;9804;52.350;6.684;2023-04-03T16:55:30;13.78;-6.00
19340;HTU21D;9804;52.350;6.684;2023-04-03T16:57:56;13.91;-6.00
19340;HTU21D;9804;52.350;6.684;2023-04-03T17:00:21;14.23;-6.00
19340;HTU21D;9804;52.350;6.684;2023-04-03T17:02:47;13.45;-6.00
19340;HTU21D;9804;52.350;6.684;2023-04-03T17:05:12;13.98;-6.00
19340;HTU21D;9804;52.350;6.684;2023-04-03T17:07:38;13.85;-6.00
19340;HTU21D;9804;52.350;6.684;2023-04-03T17:10:03;13.81;-6.00
19340;HTU21D;9804;52.350;6.684;2023-04-03T17:12:29;13.98;-6.00
19340;HTU21D;9804;52.350;6.684;2023-04-03T17:14:54;13.52;-6.00
19340;HTU21D;9804;52.350;6.684;2023-04-03T17:17:22;14.48;-6.00
19340;HTU21D;9804;52.350;6.684;2023-04-03T17:19:48;14.51;-6.00
19340;HTU21D;9804;52.350;6.684;2023-04-03T17:22:14;13.96;-6.00
19340;HTU21D;9804;52.350;6.684;2023-04-03T17:24:41;13.84;-6.00
19340;HTU21D;9804;52.350;6.684;2023-04-03T17:27:07;14.10;-6.00
19340;HTU21D;9804;52.350;6.684;2023-04-03T17:29:32;14.05;-6.00
19340;HTU21D;9804;52.350;6.684;2023-04-03T17:31:57;13.68;-6.00
19340;HTU21D;9804;52.350;6.684;2023-04-03T17:34:23;13.75;-6.00